Gravatal, Brazil
Current Conditions -  °F | °C
As of 7:00 AM on Saturday 25 Oct 2014 (Local Time) from SBCM Reporting Station
Scattered Clouds Scattered Clouds  
Wind Chill: 66°   Ceiling: Unl
Heat Index: 66°   Visibility: 4mi
Dew Point: 64°   Wind: 2mph
Humidity: 94%   Direction: 360°N
Pressure: 29.91"   Gusts: NA
Location:  28.33°S, 49.04°W
Report Text: SBCM 250900Z 36002KT 7000 SCT012 19/18 Q1013
Loading
Personal Weather Stations






























Interactive Weather Map
Tropical Storm Tracking
New forecast layout! Learn more

10-Day Weather Forecast

Advertisements
Track Severe Weather on mobile